createdAt,value
2018-07-28T00:00:01.637Z,39.30
2018-07-28T00:02:29.214Z,39.20
2018-07-28T00:04:56.796Z,39.50
2018-07-28T00:07:24.382Z,39.00
2018-07-28T00:09:51.986Z,39.40
2018-07-28T00:12:19.631Z,39.00
2018-07-28T00:14:47.244Z,39.00
2018-07-28T00:17:14.798Z,39.30
2018-07-28T00:19:42.360Z,39.30
2018-07-28T00:22:09.942Z,39.80
2018-07-28T00:24:37.480Z,40.10
2018-07-28T00:27:05.080Z,40.00
2018-07-28T00:29:32.680Z,40.30
2018-07-28T00:32:00.222Z,40.60
2018-07-28T00:34:28.098Z,40.90
2018-07-28T00:36:55.664Z,40.90
2018-07-28T00:39:23.227Z,41.40
2018-07-28T00:41:50.797Z,41.50
2018-07-28T00:44:18.378Z,41.80
2018-07-28T00:46:45.938Z,42.00
2018-07-28T00:49:13.495Z,42.10
2018-07-28T00:51:41.031Z,42.40
2018-07-28T00:54:08.581Z,42.30
2018-07-28T00:56:36.166Z,42.40
2018-07-28T00:59:03.946Z,42.50
2018-07-28T01:01:31.517Z,42.90
2018-07-28T01:03:59.168Z,42.80
2018-07-28T01:06:26.912Z,43.10
2018-07-28T01:08:54.468Z,43.00
2018-07-28T01:11:22.017Z,43.30
2018-07-28T01:13:49.656Z,43.30
2018-07-28T01:16:17.199Z,43.20
2018-07-28T01:18:44.780Z,43.50
2018-07-28T01:21:12.351Z,43.40
2018-07-28T01:23:39.920Z,43.40
2018-07-28T01:26:07.653Z,43.50
2018-07-28T01:28:35.201Z,43.60
2018-07-28T01:31:02.844Z,43.80
2018-07-28T01:33:30.456Z,43.70
2018-07-28T01:35:58.073Z,43.70
2018-07-28T01:38:25.673Z,43.90
2018-07-28T01:40:53.245Z,43.90
2018-07-28T01:43:20.853Z,43.90
2018-07-28T01:45:48.429Z,44.10
2018-07-28T01:48:16.013Z,44.10
2018-07-28T01:50:43.618Z,44.40
2018-07-28T01:53:11.212Z,44.60
2018-07-28T01:55:38.801Z,44.90
2018-07-28T01:58:06.366Z,45.00
2018-07-28T02:00:34.129Z,44.90
2018-07-28T02:03:01.685Z,45.50
2018-07-28T02:05:29.258Z,45.30
2018-07-28T02:07:56.956Z,45.60
2018-07-28T02:10:24.632Z,45.50
2018-07-28T02:12:52.210Z,46.10
2018-07-28T02:15:19.816Z,45.60
2018-07-28T02:17:47.426Z,45.60
2018-07-28T02:20:15.033Z,45.90
2018-07-28T02:22:42.674Z,46.10
2018-07-28T02:25:10.739Z,46.00
2018-07-28T02:27:38.316Z,45.60
2018-07-28T02:30:06.314Z,45.40
2018-07-28T02:32:34.226Z,45.30
2018-07-28T02:35:01.805Z,45.50
2018-07-28T02:37:29.708Z,45.20
2018-07-28T02:39:57.364Z,44.90
2018-07-28T02:42:24.988Z,44.80
2018-07-28T02:44:52.586Z,45.70
2018-07-28T02:47:20.210Z,44.70
2018-07-28T02:49:47.824Z,44.50
2018-07-28T02:52:15.445Z,44.60
2018-07-28T02:54:43.014Z,45.10
2018-07-28T02:57:10.576Z,44.90
2018-07-28T02:59:38.152Z,45.20
2018-07-28T03:02:05.793Z,45.40
2018-07-28T03:04:33.616Z,45.50
2018-07-28T03:07:01.222Z,45.90
2018-07-28T03:09:28.811Z,45.80
2018-07-28T03:11:56.376Z,45.80
2018-07-28T03:14:23.953Z,45.80
2018-07-28T03:16:51.557Z,46.00
2018-07-28T03:19:19.131Z,45.70
2018-07-28T03:21:46.749Z,45.80
2018-07-28T03:24:14.361Z,46.20
2018-07-28T03:26:41.933Z,46.10
2018-07-28T03:29:09.535Z,46.20
2018-07-28T03:31:37.128Z,46.40
2018-07-28T03:34:05.075Z,46.60
2018-07-28T03:36:32.661Z,46.90
2018-07-28T03:39:00.223Z,47.20
2018-07-28T03:41:27.773Z,47.30
2018-07-28T03:43:55.681Z,47.60
2018-07-28T03:46:23.310Z,47.90
2018-07-28T03:48:50.879Z,48.00
2018-07-28T03:51:18.473Z,48.30
2018-07-28T03:53:46.081Z,48.40
2018-07-28T03:56:13.685Z,48.50
2018-07-28T03:58:41.246Z,48.70
2018-07-28T04:01:08.837Z,48.70
2018-07-28T04:03:36.412Z,48.80
2018-07-28T04:06:04.007Z,48.80
2018-07-28T04:08:31.578Z,49.10
2018-07-28T04:10:59.141Z,49.10
2018-07-28T04:13:26.867Z,49.10
2018-07-28T04:15:54.458Z,49.20
2018-07-28T04:18:22.078Z,49.10
2018-07-28T04:20:49.673Z,49.10
2018-07-28T04:23:17.500Z,49.10
2018-07-28T04:25:45.101Z,49.00
2018-07-28T04:28:12.706Z,48.80
2018-07-28T04:30:40.309Z,49.00
2018-07-28T04:33:07.885Z,49.30
2018-07-28T04:35:35.522Z,49.10
2018-07-28T04:38:03.193Z,49.00
2018-07-28T04:40:30.844Z,48.60
2018-07-28T04:42:58.428Z,49.10
2018-07-28T04:45:26.018Z,49.20
2018-07-28T04:47:53.585Z,49.10
2018-07-28T04:50:21.136Z,49.80
2018-07-28T04:52:48.987Z,49.50
2018-07-28T04:55:16.591Z,49.70
2018-07-28T04:57:44.213Z,49.80
2018-07-28T05:00:11.917Z,50.00
2018-07-28T05:02:39.506Z,50.10
2018-07-28T05:05:07.135Z,49.80
2018-07-28T05:07:34.872Z,50.40
2018-07-28T05:10:02.389Z,50.40
2018-07-28T05:12:29.980Z,50.60
2018-07-28T05:14:57.549Z,50.30
2018-07-28T05:17:25.117Z,50.60
2018-07-28T05:19:52.700Z,50.90
2018-07-28T05:22:20.294Z,51.10
2018-07-28T05:24:48.145Z,51.30
2018-07-28T05:27:15.733Z,51.40
2018-07-28T05:29:43.394Z,51.20
2018-07-28T05:32:10.977Z,51.30
2018-07-28T05:34:38.572Z,51.40
2018-07-28T05:37:06.310Z,51.30
2018-07-28T05:39:33.874Z,51.60
2018-07-28T05:42:01.544Z,51.60
2018-07-28T05:44:29.151Z,51.30
2018-07-28T05:46:56.746Z,51.50
2018-07-28T05:49:24.351Z,51.50
2018-07-28T05:51:51.912Z,51.60
2018-07-28T05:54:19.493Z,51.50
2018-07-28T05:56:47.123Z,51.30
2018-07-28T05:59:14.684Z,51.40
2018-07-28T06:01:42.258Z,51.40
2018-07-28T06:04:10.016Z,51.70
2018-07-28T06:06:37.712Z,51.80
2018-07-28T06:09:06.844Z,52.10
2018-07-28T06:11:34.581Z,52.70
2018-07-28T06:14:02.326Z,53.30
2018-07-28T06:16:29.947Z,53.80
2018-07-28T06:18:57.534Z,53.90
2018-07-28T06:21:25.201Z,54.00
2018-07-28T06:23:52.769Z,54.30
2018-07-28T06:26:20.347Z,54.20
2018-07-28T06:28:48.010Z,53.70
2018-07-28T06:31:15.919Z,53.20
2018-07-28T06:33:43.562Z,52.60
2018-07-28T06:36:11.105Z,52.30
2018-07-28T06:38:38.729Z,51.80
2018-07-28T06:41:06.365Z,52.50
2018-07-28T06:43:33.973Z,52.70
2018-07-28T06:46:01.617Z,52.10
2018-07-28T06:48:29.468Z,51.50
2018-07-28T06:50:57.086Z,52.00
2018-07-28T06:53:24.712Z,51.60
2018-07-28T06:55:52.363Z,51.20
2018-07-28T06:58:20.178Z,50.90
2018-07-28T07:00:48.061Z,50.80
2018-07-28T07:03:15.658Z,50.60
2018-07-28T07:05:45.118Z,50.50
2018-07-28T07:08:12.810Z,50.20
2018-07-28T07:10:40.393Z,50.00
2018-07-28T07:13:08.081Z,49.20
2018-07-28T07:15:35.712Z,49.50
2018-07-28T07:18:03.386Z,49.20
2018-07-28T07:20:31.013Z,49.10
2018-07-28T07:22:58.562Z,49.40
2018-07-28T07:25:26.119Z,49.90
2018-07-28T07:27:53.897Z,51.20
2018-07-28T07:30:21.550Z,53.40
2018-07-28T07:32:49.385Z,54.40
2018-07-28T07:35:16.944Z,53.70
2018-07-28T07:37:44.497Z,53.40
2018-07-28T07:40:12.109Z,54.10
2018-07-28T07:42:39.743Z,53.90
2018-07-28T07:45:07.346Z,54.80
2018-07-28T07:47:34.960Z,55.60
2018-07-28T07:50:02.546Z,55.20
2018-07-28T07:52:30.129Z,55.30
2018-07-28T07:54:57.732Z,54.80
2018-07-28T07:57:25.324Z,53.70
2018-07-28T07:59:52.937Z,53.00
2018-07-28T08:02:23.140Z,52.30
2018-07-28T08:04:51.180Z,52.60
2018-07-28T08:07:19.488Z,51.10
2018-07-28T08:09:48.451Z,50.00
2018-07-28T08:12:17.199Z,50.20
2018-07-28T08:14:52.050Z,49.20
2018-07-28T08:17:21.174Z,48.60
2018-07-28T08:19:49.359Z,49.70
2018-07-28T08:22:17.129Z,49.10
2018-07-28T08:24:44.719Z,48.80
2018-07-28T08:27:12.490Z,47.70
2018-07-28T08:29:40.137Z,47.80
2018-07-28T08:32:07.869Z,47.00
2018-07-28T08:34:35.487Z,45.90
2018-07-28T08:37:03.121Z,45.30
2018-07-28T08:39:30.756Z,44.90
2018-07-28T08:41:58.897Z,44.70
2018-07-28T08:44:32.894Z,44.90
2018-07-28T08:47:00.984Z,44.70
2018-07-28T08:49:29.192Z,45.10
2018-07-28T08:51:57.370Z,44.90
2018-07-28T08:54:26.670Z,45.70
2018-07-28T08:56:54.862Z,45.60
2018-07-28T08:59:23.170Z,45.70
2018-07-28T09:01:52.014Z,46.50
2018-07-28T09:04:21.220Z,45.00
2018-07-28T09:06:51.786Z,43.10
2018-07-28T09:09:21.959Z,42.10
2018-07-28T09:11:51.660Z,39.20
2018-07-28T09:14:20.432Z,36.30
2018-07-28T09:16:49.108Z,36.40
2018-07-28T09:19:17.277Z,36.00
2018-07-28T09:21:45.901Z,34.80
2018-07-28T09:24:13.640Z,31.90
2018-07-28T09:26:41.203Z,30.30
2018-07-28T09:29:08.833Z,30.40
2018-07-28T09:31:36.460Z,31.30
2018-07-28T09:34:04.125Z,32.60
2018-07-28T09:36:32.113Z,31.80
2018-07-28T09:38:59.778Z,30.80
2018-07-28T09:41:27.674Z,30.30
2018-07-28T09:43:55.213Z,30.10
2018-07-28T09:46:22.851Z,30.50
2018-07-28T09:48:51.003Z,30.90
2018-07-28T09:51:20.149Z,31.80
2018-07-28T09:53:48.061Z,34.00
2018-07-28T09:56:15.783Z,35.00
2018-07-28T09:58:43.285Z,34.20
2018-07-28T10:01:16.878Z,33.40
2018-07-28T10:03:44.937Z,31.60
2018-07-28T10:06:12.630Z,31.80
2018-07-28T10:08:40.253Z,32.80
2018-07-28T10:11:07.941Z,33.30
2018-07-28T10:13:35.510Z,34.20
2018-07-28T10:16:03.202Z,35.80
2018-07-28T10:18:30.820Z,34.80
2018-07-28T10:20:59.084Z,33.40
2018-07-28T10:23:26.706Z,31.40
2018-07-28T10:25:54.309Z,28.80
2018-07-28T10:28:21.949Z,28.30
2018-07-28T10:30:49.554Z,27.10
2018-07-28T10:33:17.181Z,26.50
2018-07-28T10:35:44.761Z,26.10
2018-07-28T10:38:12.369Z,25.00
2018-07-28T10:40:39.959Z,24.30
2018-07-28T10:43:07.563Z,25.00
2018-07-28T10:45:35.185Z,27.70
2018-07-28T10:48:02.824Z,30.20
2018-07-28T10:50:30.485Z,32.80
2018-07-28T10:52:58.099Z,41.10
2018-07-28T10:55:25.724Z,43.30
2018-07-28T10:57:53.349Z,44.10
2018-07-28T11:00:21.006Z,43.10
2018-07-28T11:02:48.690Z,43.50
2018-07-28T11:05:16.317Z,45.60
2018-07-28T11:07:44.225Z,45.80
2018-07-28T11:10:11.806Z,46.80
2018-07-28T11:12:39.416Z,45.10
2018-07-28T11:15:07.820Z,43.00
2018-07-28T11:17:35.440Z,42.50
2018-07-28T11:20:04.017Z,43.00
2018-07-28T11:22:31.684Z,48.40
2018-07-28T11:24:59.581Z,54.10
2018-07-28T11:27:27.150Z,54.90
2018-07-28T11:29:54.710Z,55.10
2018-07-28T11:32:33.621Z,56.10
2018-07-28T11:35:12.399Z,58.80
2018-07-28T11:38:48.157Z,54.50
2018-07-28T11:41:26.910Z,51.90
2018-07-28T11:44:05.741Z,50.10
2018-07-28T11:46:33.605Z,46.30
2018-07-28T11:49:01.208Z,46.00
2018-07-28T11:51:28.803Z,42.50
2018-07-28T11:53:56.449Z,44.90
2018-07-28T11:56:24.088Z,43.60
2018-07-28T11:58:51.735Z,44.30
2018-07-28T12:01:19.304Z,42.00
2018-07-28T12:03:46.925Z,41.80
2018-07-28T12:06:14.546Z,41.80
2018-07-28T12:08:43.301Z,40.30
2018-07-28T12:11:11.104Z,40.50
2018-07-28T12:13:38.667Z,41.00
2018-07-28T12:16:06.341Z,41.80
2018-07-28T12:18:34.011Z,43.20
2018-07-28T12:21:01.713Z,44.40
2018-07-28T12:23:29.306Z,46.50
2018-07-28T12:25:56.917Z,47.70
2018-07-28T12:28:24.550Z,47.30
2018-07-28T12:30:52.174Z,47.70
2018-07-28T12:33:19.776Z,47.80
2018-07-28T12:35:47.346Z,45.90
2018-07-28T12:38:14.950Z,45.60
2018-07-28T12:40:42.565Z,45.30
2018-07-28T12:43:10.168Z,44.40
2018-07-28T12:45:37.830Z,44.50
2018-07-28T12:48:05.436Z,44.80
2018-07-28T12:50:33.105Z,42.30
2018-07-28T12:53:00.714Z,41.90
2018-07-28T12:55:28.414Z,42.40
2018-07-28T12:57:55.949Z,41.60
2018-07-28T13:00:23.545Z,41.10
2018-07-28T13:02:51.156Z,41.20
2018-07-28T13:05:18.767Z,41.20
2018-07-28T13:07:46.349Z,41.80
2018-07-28T13:10:14.336Z,42.10
2018-07-28T13:12:41.864Z,41.90
2018-07-28T13:15:09.443Z,42.20
2018-07-28T13:17:37.103Z,42.00
2018-07-28T13:20:05.185Z,42.80
2018-07-28T13:22:32.889Z,42.90
2018-07-28T13:25:00.465Z,41.90
2018-07-28T13:27:28.109Z,41.80
2018-07-28T13:29:55.840Z,41.50
2018-07-28T13:32:23.401Z,41.20
2018-07-28T13:34:51.208Z,41.10
2018-07-28T13:37:18.821Z,41.40
2018-07-28T13:39:46.497Z,40.50
2018-07-28T13:42:14.157Z,39.10
2018-07-28T13:44:41.698Z,38.00
2018-07-28T13:47:09.337Z,38.10
2018-07-28T13:49:36.915Z,37.70
2018-07-28T13:52:04.604Z,38.20
2018-07-28T13:54:32.214Z,38.50
2018-07-28T13:56:59.859Z,37.80
2018-07-28T13:59:27.512Z,38.90
2018-07-28T14:01:55.122Z,38.70
2018-07-28T14:04:22.750Z,39.00
2018-07-28T14:06:50.362Z,37.90
2018-07-28T14:09:17.988Z,37.50
2018-07-28T14:11:45.566Z,36.90
2018-07-28T14:14:13.549Z,37.90
2018-07-28T14:16:41.174Z,37.60
2018-07-28T14:19:09.630Z,37.60
2018-07-28T14:21:37.205Z,38.00
2018-07-28T14:24:04.952Z,38.20
2018-07-28T14:26:32.622Z,38.00
2018-07-28T14:29:00.247Z,38.40
2018-07-28T14:31:28.197Z,38.70
2018-07-28T14:33:55.793Z,38.30
2018-07-28T14:36:23.436Z,38.60
2018-07-28T14:38:51.101Z,39.30
2018-07-28T14:41:18.761Z,40.00
2018-07-28T14:43:52.329Z,40.30
2018-07-28T14:46:19.922Z,38.80
2018-07-28T14:48:47.565Z,38.80
2018-07-28T14:51:15.169Z,38.90
2018-07-28T14:53:42.850Z,39.10
2018-07-28T14:56:10.437Z,39.20
2018-07-28T14:58:38.266Z,40.00
2018-07-28T15:01:05.934Z,40.80
2018-07-28T15:03:33.546Z,40.90
2018-07-28T15:06:01.314Z,41.20
2018-07-28T15:08:28.905Z,41.60
2018-07-28T15:10:56.537Z,41.30
2018-07-28T15:13:24.092Z,41.80
2018-07-28T15:15:51.617Z,41.00
2018-07-28T15:18:19.214Z,41.10
2018-07-28T15:20:46.785Z,40.70
2018-07-28T15:23:14.406Z,40.30
2018-07-28T15:25:42.031Z,40.80
2018-07-28T15:28:09.647Z,41.60
2018-07-28T15:30:37.265Z,41.60
2018-07-28T15:33:04.889Z,41.50
2018-07-28T15:35:32.504Z,42.80
2018-07-28T15:38:00.364Z,42.70
2018-07-28T15:40:27.965Z,43.00
2018-07-28T15:42:55.536Z,43.00
2018-07-28T15:45:23.803Z,43.20
2018-07-28T15:47:51.714Z,43.80
2018-07-28T15:50:19.285Z,43.70
2018-07-28T15:52:46.946Z,43.30
2018-07-28T15:55:14.553Z,44.20
2018-07-28T15:57:42.248Z,42.60
2018-07-28T16:00:09.868Z,42.60
2018-07-28T16:02:37.533Z,42.30
2018-07-28T16:05:05.209Z,41.30
2018-07-28T16:07:32.824Z,41.00
2018-07-28T16:10:00.411Z,41.90
2018-07-28T16:12:28.109Z,42.30
2018-07-28T16:14:55.691Z,42.20
2018-07-28T16:17:23.305Z,42.40
2018-07-28T16:19:50.946Z,42.10
2018-07-28T16:22:18.585Z,41.80
2018-07-28T16:24:46.267Z,41.70
2018-07-28T16:27:13.856Z,39.70
2018-07-28T16:29:41.441Z,39.00
2018-07-28T16:32:08.999Z,38.80
2018-07-28T16:34:36.879Z,40.00
2018-07-28T16:37:04.573Z,39.10
2018-07-28T16:39:32.165Z,39.00
2018-07-28T16:41:59.740Z,38.50
2018-07-28T16:44:27.665Z,38.40
2018-07-28T16:46:55.338Z,38.00
2018-07-28T16:49:22.981Z,37.50
2018-07-28T16:51:50.643Z,37.20
2018-07-28T16:54:18.368Z,36.50
2018-07-28T16:56:46.019Z,37.00
2018-07-28T16:59:13.713Z,37.70
2018-07-28T17:01:41.560Z,38.00
2018-07-28T17:04:09.172Z,38.70
2018-07-28T17:06:36.749Z,37.80
2018-07-28T17:09:07.010Z,38.10
2018-07-28T17:11:34.625Z,38.50
2018-07-28T17:14:02.270Z,39.30
2018-07-28T17:16:29.937Z,39.00
2018-07-28T17:18:57.557Z,39.90
2018-07-28T17:21:25.246Z,41.50
2018-07-28T17:23:52.833Z,41.80
2018-07-28T17:26:20.417Z,42.30
2018-07-28T17:28:48.161Z,42.90
2018-07-28T17:31:15.794Z,42.80
2018-07-28T17:33:43.328Z,43.10
2018-07-28T17:36:10.966Z,43.50
2018-07-28T17:38:38.576Z,44.00
2018-07-28T17:41:06.231Z,44.40
2018-07-28T17:43:33.808Z,44.30
2018-07-28T17:46:01.430Z,44.50
2018-07-28T17:48:29.133Z,45.00
2018-07-28T17:50:56.893Z,45.30
2018-07-28T17:53:24.588Z,45.10
2018-07-28T17:55:52.162Z,45.50
2018-07-28T17:58:20.079Z,45.60
2018-07-28T18:00:47.661Z,45.70
2018-07-28T18:03:15.290Z,45.70
2018-07-28T18:05:42.925Z,45.60
2018-07-28T18:08:10.586Z,45.30
2018-07-28T18:10:38.204Z,45.20
2018-07-28T18:13:05.825Z,45.50
2018-07-28T18:15:33.406Z,45.30
2018-07-28T18:18:00.969Z,45.30
2018-07-28T18:20:28.679Z,45.50
2018-07-28T18:22:56.345Z,45.80
2018-07-28T18:25:24.137Z,46.10
2018-07-28T18:27:51.744Z,46.60
2018-07-28T18:30:19.599Z,46.50
2018-07-28T18:32:47.293Z,47.00
2018-07-28T18:35:14.985Z,46.70
2018-07-28T18:37:42.578Z,46.80
2018-07-28T18:40:10.167Z,47.10
2018-07-28T18:42:37.824Z,47.20
2018-07-28T18:45:05.537Z,46.90
2018-07-28T18:47:33.269Z,47.10
2018-07-28T18:50:00.905Z,46.80
2018-07-28T18:52:28.485Z,46.90
2018-07-28T18:54:56.079Z,47.00
2018-07-28T18:57:23.742Z,46.80
2018-07-28T18:59:51.352Z,47.10
2018-07-28T19:02:18.985Z,47.60
2018-07-28T19:04:46.772Z,47.30
2018-07-28T19:07:17.688Z,46.90
2018-07-28T19:09:49.374Z,46.90
2018-07-28T19:12:21.223Z,46.90
2018-07-28T19:14:49.467Z,47.10
2018-07-28T19:17:18.066Z,47.40
2018-07-28T19:19:47.683Z,47.00
2018-07-28T19:22:21.362Z,47.10
2018-07-28T19:24:49.923Z,47.10
2018-07-28T19:27:18.348Z,47.10
2018-07-28T19:29:47.277Z,46.90
2018-07-28T19:32:16.444Z,46.60
2018-07-28T19:34:45.072Z,47.20
2018-07-28T19:37:16.718Z,46.80
2018-07-28T19:39:44.496Z,47.20
2018-07-28T19:42:17.674Z,46.40
2018-07-28T19:44:45.242Z,46.50
2018-07-28T19:47:12.833Z,46.50
2018-07-28T19:49:40.485Z,46.60
2018-07-28T19:52:08.117Z,46.40
2018-07-28T19:54:35.997Z,46.90
2018-07-28T19:57:03.565Z,46.30
2018-07-28T19:59:31.129Z,46.50
2018-07-28T20:01:58.765Z,46.70
2018-07-28T20:04:26.322Z,46.80
2018-07-28T20:06:53.953Z,46.50
2018-07-28T20:09:21.612Z,46.40
2018-07-28T20:11:49.210Z,46.70
2018-07-28T20:14:16.782Z,46.90
2018-07-28T20:16:44.381Z,46.60
2018-07-28T20:19:12.001Z,46.40
2018-07-28T20:21:39.598Z,46.90
2018-07-28T20:24:07.236Z,46.80
2018-07-28T20:26:34.917Z,46.50
2018-07-28T20:29:02.490Z,46.70
2018-07-28T20:31:30.101Z,46.70
2018-07-28T20:33:57.669Z,46.70
2018-07-28T20:36:25.245Z,46.60
2018-07-28T20:38:52.873Z,46.30
2018-07-28T20:41:20.540Z,46.60
2018-07-28T20:43:48.133Z,46.20
2018-07-28T20:46:15.701Z,46.10
2018-07-28T20:48:43.272Z,46.20
2018-07-28T20:51:10.946Z,47.10
2018-07-28T20:53:38.477Z,46.60
2018-07-28T20:56:07.565Z,46.70
2018-07-28T20:58:35.938Z,46.80
2018-07-28T21:01:04.436Z,46.70
2018-07-28T21:03:32.329Z,47.20
2018-07-28T21:05:59.920Z,47.40
2018-07-28T21:08:27.596Z,46.60
2018-07-28T21:10:55.241Z,46.80
2018-07-28T21:13:22.849Z,46.80
2018-07-28T21:15:50.473Z,46.70
2018-07-28T21:18:18.051Z,47.10
2018-07-28T21:20:45.605Z,47.10
2018-07-28T21:23:13.477Z,47.60
2018-07-28T21:25:41.118Z,47.90
2018-07-28T21:28:08.775Z,48.10
2018-07-28T21:30:36.335Z,48.30
2018-07-28T21:33:03.908Z,47.80
2018-07-28T21:35:31.538Z,48.60
2018-07-28T21:37:59.109Z,49.00
2018-07-28T21:40:26.728Z,48.10
2018-07-28T21:42:54.305Z,48.50
2018-07-28T21:45:22.162Z,48.10
2018-07-28T21:47:49.767Z,48.30
2018-07-28T21:50:17.360Z,48.10
2018-07-28T21:52:45.214Z,48.10
2018-07-28T21:55:12.822Z,48.10
2018-07-28T21:57:40.422Z,48.30
2018-07-28T22:00:08.965Z,48.90
2018-07-28T22:02:36.659Z,48.00
2018-07-28T22:05:04.392Z,48.20
2018-07-28T22:07:32.260Z,49.20
2018-07-28T22:09:59.863Z,49.10
2018-07-28T22:12:27.569Z,49.80
2018-07-28T22:14:55.272Z,50.00
2018-07-28T22:17:22.893Z,49.30
2018-07-28T22:19:50.740Z,49.30
2018-07-28T22:22:18.369Z,50.00
2018-07-28T22:24:45.918Z,50.00
2018-07-28T22:27:13.562Z,49.90
2018-07-28T22:29:41.154Z,50.30
2018-07-28T22:32:08.997Z,50.50
2018-07-28T22:34:36.554Z,49.70
2018-07-28T22:37:04.209Z,49.20
2018-07-28T22:39:31.794Z,49.50
2018-07-28T22:41:59.362Z,49.20
2018-07-28T22:44:27.222Z,49.30
2018-07-28T22:46:54.777Z,49.80
2018-07-28T22:49:22.337Z,49.60
2018-07-28T22:51:49.977Z,49.80
2018-07-28T22:54:17.552Z,49.80
2018-07-28T22:56:45.197Z,49.10
2018-07-28T22:59:12.848Z,49.60
2018-07-28T23:01:41.618Z,49.30
2018-07-28T23:04:09.196Z,49.50
2018-07-28T23:06:36.788Z,49.30
2018-07-28T23:09:07.168Z,49.50
2018-07-28T23:11:34.769Z,50.10
2018-07-28T23:14:02.565Z,50.50
2018-07-28T23:16:30.113Z,50.30
2018-07-28T23:18:57.843Z,50.40
2018-07-28T23:21:25.444Z,50.40
2018-07-28T23:23:53.062Z,50.70
2018-07-28T23:26:20.652Z,50.70
2018-07-28T23:28:48.219Z,51.20
2018-07-28T23:31:15.829Z,51.50
2018-07-28T23:33:43.410Z,52.10
2018-07-28T23:36:11.025Z,52.10
2018-07-28T23:38:38.600Z,52.20
2018-07-28T23:41:06.313Z,52.10
2018-07-28T23:43:33.993Z,52.00
2018-07-28T23:46:01.560Z,52.40
2018-07-28T23:48:29.410Z,52.70
2018-07-28T23:50:57.019Z,52.90
2018-07-28T23:53:24.664Z,52.80
2018-07-28T23:55:52.265Z,53.00
2018-07-28T23:58:19.913Z,53.00
